createdAt,value
2018-02-11T00:00:22.033Z,68.70
2018-02-11T00:02:50.341Z,62.50
2018-02-11T00:05:17.847Z,63.13
2018-02-11T00:07:45.768Z,64.30
2018-02-11T00:10:14.488Z,70.37
2018-02-11T00:12:42.026Z,72.70
2018-02-11T00:15:09.579Z,65.23
2018-02-11T00:17:37.123Z,63.37
2018-02-11T00:20:04.790Z,63.03
2018-02-11T00:22:32.330Z,65.83
2018-02-11T00:25:00.603Z,57.60
2018-02-11T00:27:29.024Z,59.33
2018-02-11T00:29:56.550Z,61.00
2018-02-11T00:32:24.318Z,62.07
2018-02-11T00:34:51.844Z,59.03
2018-02-11T00:37:25.059Z,61.33
2018-02-11T00:39:52.601Z,61.47
2018-02-11T00:42:21.034Z,58.13
2018-02-11T00:44:48.577Z,61.27
2018-02-11T00:47:16.153Z,62.37
2018-02-11T00:49:43.696Z,60.43
2018-02-11T00:52:11.209Z,61.80
2018-02-11T00:54:38.773Z,58.40
2018-02-11T00:57:06.466Z,62.30
2018-02-11T00:59:34.766Z,56.20
2018-02-11T01:02:02.306Z,61.70
2018-02-11T01:04:29.883Z,56.63
2018-02-11T01:06:57.656Z,62.37
2018-02-11T01:09:25.279Z,59.60
2018-02-11T01:11:52.778Z,58.07
2018-02-11T01:14:20.328Z,60.50
2018-02-11T01:16:48.869Z,58.47
2018-02-11T01:19:16.474Z,59.30
2018-02-11T01:21:44.383Z,58.67
2018-02-11T01:24:11.906Z,56.67
2018-02-11T01:26:39.525Z,58.87
2018-02-11T01:29:07.947Z,58.97
2018-02-11T01:31:35.462Z,59.47
2018-02-11T01:34:02.989Z,61.30
2018-02-11T01:36:30.493Z,64.33
2018-02-11T01:38:58.789Z,62.53
2018-02-11T01:41:26.387Z,60.53
2018-02-11T01:43:53.945Z,59.23
2018-02-11T01:46:21.483Z,57.20
2018-02-11T01:48:49.114Z,58.27
2018-02-11T01:51:17.424Z,58.30
2018-02-11T01:53:45.372Z,52.23
2018-02-11T01:56:12.970Z,61.10
2018-02-11T01:58:40.471Z,59.20
2018-02-11T02:01:08.743Z,55.43
2018-02-11T02:03:36.232Z,57.27
2018-02-11T02:06:03.897Z,52.83
2018-02-11T02:08:31.390Z,55.03
2018-02-11T02:10:58.916Z,58.23
2018-02-11T02:13:26.445Z,60.47
2018-02-11T02:15:54.112Z,56.03
2018-02-11T02:18:21.662Z,56.17
2018-02-11T02:20:49.391Z,55.57
2018-02-11T02:23:16.878Z,53.47
2018-02-11T02:25:45.193Z,57.63
2018-02-11T02:28:12.837Z,55.37
2018-02-11T02:30:40.705Z,65.40
2018-02-11T02:33:08.369Z,51.60
2018-02-11T02:35:36.030Z,57.23
2018-02-11T02:38:03.627Z,56.50
2018-02-11T02:40:31.155Z,56.67
2018-02-11T02:42:58.808Z,55.57
2018-02-11T02:45:26.381Z,55.67
2018-02-11T02:47:53.927Z,59.20
2018-02-11T02:50:22.255Z,61.17
2018-02-11T02:52:49.784Z,57.57
2018-02-11T02:55:17.872Z,58.70
2018-02-11T02:57:45.390Z,55.70
2018-02-11T03:00:13.677Z,54.73
2018-02-11T03:02:41.174Z,54.03
2018-02-11T03:05:08.772Z,55.60
2018-02-11T03:07:36.488Z,53.27
2018-02-11T03:10:04.152Z,52.77
2018-02-11T03:12:31.656Z,58.20
2018-02-11T03:14:59.192Z,58.30
2018-02-11T03:17:26.804Z,61.60
2018-02-11T03:19:54.330Z,53.30
2018-02-11T03:22:21.845Z,54.97
2018-02-11T03:24:49.405Z,60.17
2018-02-11T03:27:17.124Z,56.30
2018-02-11T03:29:44.735Z,57.17
2018-02-11T03:32:12.511Z,58.93
2018-02-11T03:34:40.051Z,58.33
2018-02-11T03:37:07.574Z,58.73
2018-02-11T03:39:35.862Z,68.17
2018-02-11T03:42:04.167Z,56.40
2018-02-11T03:44:32.574Z,57.47
2018-02-11T03:47:00.103Z,59.43
2018-02-11T03:49:27.643Z,56.93
2018-02-11T03:51:55.224Z,55.77
2018-02-11T03:54:22.753Z,60.33
2018-02-11T03:56:50.514Z,58.87
2018-02-11T03:59:18.801Z,55.30
2018-02-11T04:01:47.181Z,55.07
2018-02-11T04:04:15.482Z,53.67
2018-02-11T04:06:43.036Z,52.73
2018-02-11T04:09:10.602Z,52.43
2018-02-11T04:11:38.354Z,60.40
2018-02-11T04:14:06.846Z,57.30
2018-02-11T04:16:34.423Z,54.50
2018-02-11T04:19:01.942Z,57.77
2018-02-11T04:21:29.615Z,54.43
2018-02-11T04:23:57.511Z,52.73
2018-02-11T04:26:25.182Z,59.97
2018-02-11T04:28:52.687Z,52.80
2018-02-11T04:31:20.375Z,56.43
2018-02-11T04:33:47.913Z,57.23
2018-02-11T04:36:15.551Z,62.63
2018-02-11T04:38:43.066Z,55.10
2018-02-11T04:41:10.579Z,59.13
2018-02-11T04:43:38.862Z,56.07
2018-02-11T04:46:06.414Z,56.07
2018-02-11T04:48:34.045Z,53.00
2018-02-11T04:51:01.584Z,53.60
2018-02-11T04:53:29.347Z,50.60
2018-02-11T04:55:57.129Z,58.43
2018-02-11T04:58:24.699Z,55.67
2018-02-11T05:00:52.665Z,55.50
2018-02-11T05:03:20.190Z,56.33
2018-02-11T05:05:47.809Z,56.60
2018-02-11T05:08:15.461Z,51.77
2018-02-11T05:10:42.952Z,52.67
2018-02-11T05:13:10.485Z,54.17
2018-02-11T05:15:38.133Z,52.47
2018-02-11T05:18:05.667Z,53.13
2018-02-11T05:20:33.172Z,58.30
2018-02-11T05:23:00.804Z,54.03
2018-02-11T05:25:28.351Z,56.80
2018-02-11T05:27:56.493Z,55.03
2018-02-11T05:30:24.012Z,53.93
2018-02-11T05:32:51.776Z,52.40
2018-02-11T05:35:19.274Z,57.57
2018-02-11T05:37:46.847Z,56.60
2018-02-11T05:40:14.365Z,52.77
2018-02-11T05:42:41.971Z,56.27
2018-02-11T05:45:09.579Z,50.80
2018-02-11T05:47:37.854Z,49.63
2018-02-11T05:50:05.370Z,56.93
2018-02-11T05:52:33.383Z,50.83
2018-02-11T05:55:00.909Z,52.77
2018-02-11T05:57:28.446Z,50.67
2018-02-11T05:59:56.086Z,53.63
2018-02-11T06:02:23.658Z,50.70
2018-02-11T06:04:51.893Z,53.93
2018-02-11T06:07:19.432Z,58.50
2018-02-11T06:09:47.160Z,53.97
2018-02-11T06:12:15.595Z,53.27
2018-02-11T06:14:43.102Z,53.77
2018-02-11T06:17:10.619Z,50.47
2018-02-11T06:19:38.232Z,49.53
2018-02-11T06:22:06.449Z,54.47
2018-02-11T06:24:33.966Z,52.37
2018-02-11T06:27:01.715Z,54.50
2018-02-11T06:29:29.231Z,53.20
2018-02-11T06:31:56.758Z,50.83
2018-02-11T06:34:24.258Z,52.13
2018-02-11T06:36:51.760Z,49.43
2018-02-11T06:39:19.310Z,47.63
2018-02-11T06:41:46.935Z,46.33
2018-02-11T06:44:14.542Z,45.13
2018-02-11T06:46:42.173Z,45.90
2018-02-11T06:49:09.711Z,45.10
2018-02-11T06:51:37.298Z,46.37
2018-02-11T06:54:04.850Z,44.43
2018-02-11T06:56:32.512Z,43.50
2018-02-11T06:59:00.323Z,43.17
2018-02-11T07:01:27.849Z,40.40
2018-02-11T07:03:56.710Z,42.93
2018-02-11T07:06:24.227Z,43.93
2018-02-11T07:08:51.885Z,40.33
2018-02-11T07:11:19.382Z,37.87
2018-02-11T07:13:46.964Z,39.07
2018-02-11T07:16:14.500Z,39.17
2018-02-11T07:18:42.007Z,37.03
2018-02-11T07:21:10.935Z,38.40
2018-02-11T07:23:38.553Z,36.37
2018-02-11T07:26:06.828Z,34.80
2018-02-11T07:28:35.828Z,33.80
2018-02-11T07:31:04.105Z,34.40
2018-02-11T07:33:33.345Z,33.43
2018-02-11T07:36:00.866Z,27.83
2018-02-11T07:38:28.414Z,28.53
2018-02-11T07:40:55.969Z,30.67
2018-02-11T07:43:23.558Z,29.23
2018-02-11T07:45:51.784Z,27.37
2018-02-11T07:48:19.352Z,25.17
2018-02-11T07:50:46.989Z,28.13
2018-02-11T07:55:48.514Z,25.20
2018-02-11T07:58:16.032Z,25.63
2018-02-11T08:00:43.638Z,27.50
2018-02-11T08:03:11.952Z,26.17
2018-02-11T08:05:39.563Z,28.93
2018-02-11T08:08:07.196Z,24.73
2018-02-11T08:10:34.841Z,24.47
2018-02-11T08:13:02.382Z,23.23
2018-02-11T08:15:29.904Z,22.47
2018-02-11T08:17:58.185Z,23.73
2018-02-11T08:20:25.945Z,22.80
2018-02-11T08:22:53.990Z,21.50
2018-02-11T08:25:21.629Z,22.80
2018-02-11T08:27:49.142Z,23.20
2018-02-11T08:30:17.444Z,23.57
2018-02-11T08:32:44.961Z,21.67
2018-02-11T08:35:13.267Z,19.47
2018-02-11T08:37:40.817Z,22.30
2018-02-11T08:40:09.184Z,19.10
2018-02-11T08:42:37.460Z,22.27
2018-02-11T08:45:05.922Z,21.70
2018-02-11T08:47:33.546Z,23.07
2018-02-11T08:50:01.114Z,18.67
2018-02-11T08:52:30.650Z,19.23
2018-02-11T08:54:58.641Z,18.93
2018-02-11T08:57:26.920Z,20.57
2018-02-11T08:59:54.503Z,20.13
2018-02-11T09:02:22.203Z,18.70
2018-02-11T09:04:49.810Z,18.87
2018-02-11T09:07:18.148Z,16.63
2018-02-11T09:09:45.663Z,18.47
2018-02-11T09:12:13.413Z,17.67
2018-02-11T09:14:40.920Z,21.53
2018-02-11T09:17:08.926Z,17.07
2018-02-11T09:19:36.577Z,17.97
2018-02-11T09:22:04.177Z,17.20
2018-02-11T09:24:31.703Z,14.97
2018-02-11T09:26:59.435Z,16.73
2018-02-11T09:29:26.986Z,15.37
2018-02-11T09:31:54.522Z,15.83
2018-02-11T09:34:22.803Z,16.00
2018-02-11T09:36:50.394Z,13.60
2018-02-11T09:39:17.978Z,15.17
2018-02-11T09:41:45.567Z,14.03
2018-02-11T09:44:13.115Z,13.70
2018-02-11T09:46:40.629Z,14.00
2018-02-11T09:49:08.152Z,13.33
2018-02-11T09:51:36.407Z,14.77
2018-02-11T09:54:04.679Z,14.43
2018-02-11T09:56:32.204Z,11.93
2018-02-11T09:58:59.724Z,14.73
2018-02-11T10:01:27.255Z,13.90
2018-02-11T10:03:54.847Z,13.37
2018-02-11T10:06:22.417Z,13.73
2018-02-11T10:08:49.967Z,14.10
2018-02-11T10:11:17.646Z,11.93
2018-02-11T10:13:45.346Z,13.67
2018-02-11T10:16:12.878Z,14.00
2018-02-11T10:18:40.405Z,13.47
2018-02-11T10:21:08.726Z,11.47
2018-02-11T10:23:36.245Z,13.17
2018-02-11T10:26:03.810Z,13.70
2018-02-11T10:28:31.341Z,10.63
2018-02-11T10:30:59.686Z,13.40
2018-02-11T10:33:28.319Z,12.73
2018-02-11T10:35:55.878Z,10.80
2018-02-11T10:38:23.414Z,10.87
2018-02-11T10:40:51.711Z,13.83
2018-02-11T10:43:21.888Z,10.23
2018-02-11T10:45:49.569Z,11.03
2018-02-11T10:48:17.957Z,11.83
2018-02-11T10:50:45.534Z,10.63
2018-02-11T10:53:13.179Z,13.83
2018-02-11T10:55:41.448Z,10.23
2018-02-11T10:58:09.005Z,12.40
2018-02-11T11:00:37.674Z,14.07
2018-02-11T11:03:05.367Z,11.30
2018-02-11T11:05:33.951Z,12.50
2018-02-11T11:08:02.283Z,10.37
2018-02-11T11:10:29.809Z,13.47
2018-02-11T11:12:58.094Z,15.07
2018-02-11T11:15:25.630Z,12.60
2018-02-11T11:17:53.189Z,19.13
2018-02-11T11:20:20.691Z,12.50
2018-02-11T11:22:48.218Z,12.43
2018-02-11T11:25:15.859Z,11.17
2018-02-11T11:27:44.152Z,11.97
2018-02-11T11:30:11.742Z,14.80
2018-02-11T11:32:39.279Z,13.23
2018-02-11T11:35:06.931Z,13.90
2018-02-11T11:37:35.485Z,11.53
2018-02-11T11:40:03.017Z,12.57
2018-02-11T11:42:30.763Z,14.47
2018-02-11T11:44:58.303Z,20.47
2018-02-11T11:47:25.838Z,20.80
2018-02-11T11:49:53.370Z,13.93
2018-02-11T11:52:21.732Z,13.17
2018-02-11T11:54:50.405Z,12.03
2018-02-11T11:57:17.902Z,12.10
2018-02-11T11:59:45.602Z,11.87
2018-02-11T12:02:13.916Z,12.13
2018-02-11T12:04:41.506Z,11.60
2018-02-11T12:07:09.717Z,11.67
2018-02-11T12:09:37.231Z,10.97
2018-02-11T12:12:04.868Z,12.83
2018-02-11T12:14:32.528Z,12.10
2018-02-11T12:17:00.191Z,11.67
2018-02-11T12:19:28.949Z,10.43
2018-02-11T12:21:57.241Z,12.53
2018-02-11T12:24:24.761Z,11.73
2018-02-11T12:26:52.272Z,14.30
2018-02-11T12:29:19.822Z,11.37
2018-02-11T12:31:47.658Z,10.93
2018-02-11T12:34:15.408Z,14.43
2018-02-11T12:36:43.743Z,11.67
2018-02-11T12:39:11.425Z,33.03
2018-02-11T12:41:39.864Z,11.07
2018-02-11T12:44:07.413Z,13.40
2018-02-11T12:46:35.818Z,14.13
2018-02-11T12:49:03.386Z,14.23
2018-02-11T12:51:31.043Z,13.57
2018-02-11T12:53:58.721Z,15.43
2018-02-11T12:56:26.272Z,21.03
2018-02-11T12:58:53.924Z,21.77
2018-02-11T13:01:21.419Z,12.50
2018-02-11T13:03:48.949Z,14.00
2018-02-11T13:06:16.475Z,15.07
2018-02-11T13:08:44.033Z,13.47
2018-02-11T13:11:12.321Z,15.53
2018-02-11T13:13:40.707Z,12.80
2018-02-11T13:16:08.276Z,16.37
2018-02-11T13:18:35.779Z,13.93
2018-02-11T13:21:03.419Z,16.33
2018-02-11T13:23:31.789Z,15.47
2018-02-11T13:25:59.925Z,19.20
2018-02-11T13:28:28.518Z,13.60
2018-02-11T13:30:56.620Z,14.47
2018-02-11T13:33:24.270Z,17.77
2018-02-11T13:35:52.056Z,17.77
2018-02-11T13:38:20.100Z,17.60
2018-02-11T13:40:47.688Z,19.83
2018-02-11T13:43:15.234Z,14.07
2018-02-11T13:45:43.276Z,17.63
2018-02-11T13:48:11.430Z,20.90
2018-02-11T13:50:39.746Z,15.80
2018-02-11T13:53:07.301Z,62.67
2018-02-11T13:55:35.009Z,16.47
2018-02-11T13:58:02.677Z,20.57
2018-02-11T14:00:30.293Z,18.77
2018-02-11T14:02:57.890Z,20.60
2018-02-11T14:05:25.619Z,21.20
2018-02-11T14:07:54.330Z,31.90
2018-02-11T14:10:22.458Z,37.33
2018-02-11T14:12:50.320Z,21.30
2018-02-11T14:15:17.878Z,19.73
2018-02-11T14:17:46.258Z,22.57
2018-02-11T14:20:13.840Z,24.73
2018-02-11T14:22:41.881Z,19.87
2018-02-11T14:25:10.238Z,21.67
2018-02-11T14:27:38.630Z,19.30
2018-02-11T14:30:06.280Z,29.77
2018-02-11T14:32:33.849Z,26.20
2018-02-11T14:35:02.902Z,24.10
2018-02-11T14:37:30.580Z,21.07
2018-02-11T14:39:58.084Z,23.17
2018-02-11T14:42:25.658Z,25.63
2018-02-11T14:44:53.965Z,25.03
2018-02-11T14:47:21.973Z,23.47
2018-02-11T14:49:50.131Z,24.93
2018-02-11T14:52:17.881Z,27.87
2018-02-11T14:54:45.429Z,22.70
2018-02-11T14:57:13.049Z,30.73
2018-02-11T14:59:40.939Z,28.13
2018-02-11T15:02:08.535Z,32.47
2018-02-11T15:04:36.050Z,28.23
2018-02-11T15:07:03.635Z,22.33
2018-02-11T15:09:31.201Z,19.10
2018-02-11T15:11:58.807Z,35.80
2018-02-11T15:14:27.116Z,23.97
2018-02-11T15:16:54.683Z,25.13
2018-02-11T15:19:22.223Z,23.07
2018-02-11T15:21:49.726Z,24.80
2018-02-11T15:24:18.090Z,31.37
2018-02-11T15:26:45.740Z,22.67
2018-02-11T15:29:13.518Z,21.70
2018-02-11T15:31:41.059Z,26.23
2018-02-11T15:34:08.844Z,27.67
2018-02-11T15:36:36.642Z,19.17
2018-02-11T15:39:04.181Z,26.23
2018-02-11T15:41:31.750Z,24.73
2018-02-11T15:43:59.262Z,22.23
2018-02-11T15:46:27.223Z,20.50
2018-02-11T15:48:55.628Z,20.03
2018-02-11T15:51:23.391Z,20.63
2018-02-11T15:53:51.232Z,19.73
2018-02-11T15:56:18.790Z,19.70
2018-02-11T15:58:47.311Z,15.13
2018-02-11T16:01:14.864Z,17.63
2018-02-11T16:03:42.429Z,25.50
2018-02-11T16:06:10.132Z,16.47
2018-02-11T16:08:37.677Z,15.60
2018-02-11T16:11:05.308Z,15.33
2018-02-11T16:13:32.837Z,21.20
2018-02-11T16:16:00.529Z,15.90
2018-02-11T16:18:28.174Z,20.77
2018-02-11T16:20:56.095Z,15.97
2018-02-11T16:23:23.625Z,14.67
2018-02-11T16:25:51.145Z,23.47
2018-02-11T16:28:19.462Z,15.67
2018-02-11T16:30:47.007Z,18.13
2018-02-11T16:33:14.686Z,14.27
2018-02-11T16:35:42.207Z,16.43
2018-02-11T16:38:09.836Z,15.00
2018-02-11T16:40:37.502Z,15.20
2018-02-11T16:43:05.092Z,14.63
2018-02-11T16:45:33.332Z,20.37
2018-02-11T16:48:01.249Z,25.33
2018-02-11T16:50:28.794Z,13.23
2018-02-11T16:52:56.332Z,15.40
2018-02-11T16:55:23.859Z,15.63
2018-02-11T16:57:51.396Z,25.40
2018-02-11T17:00:18.942Z,14.30
2018-02-11T17:02:46.652Z,12.60
2018-02-11T17:05:14.301Z,13.73
2018-02-11T17:07:42.595Z,15.50
2018-02-11T17:10:10.135Z,13.37
2018-02-11T17:12:38.004Z,15.30
2018-02-11T17:15:05.575Z,12.20
2018-02-11T17:17:33.133Z,11.80
2018-02-11T17:20:00.808Z,13.07
2018-02-11T17:22:28.328Z,16.87
2018-02-11T17:24:55.847Z,11.63
2018-02-11T17:27:23.375Z,15.87
2018-02-11T17:29:50.921Z,14.33
2018-02-11T17:32:18.427Z,14.97
2018-02-11T17:34:46.079Z,15.40
2018-02-11T17:37:13.653Z,10.67
2018-02-11T17:39:41.180Z,40.13
2018-02-11T17:42:08.888Z,12.27
2018-02-11T17:44:36.412Z,20.90
2018-02-11T17:47:04.005Z,12.47
2018-02-11T17:49:31.534Z,15.27
2018-02-11T17:51:59.083Z,15.83
2018-02-11T17:54:26.619Z,12.97
2018-02-11T17:56:54.150Z,11.33
2018-02-11T17:59:21.823Z,15.10
2018-02-11T18:01:49.441Z,22.70
2018-02-11T18:04:16.974Z,20.60
2018-02-11T18:06:44.543Z,13.63
2018-02-11T18:09:12.134Z,10.57
2018-02-11T18:11:40.541Z,9.60
2018-02-11T18:14:08.305Z,17.30
2018-02-11T18:16:35.802Z,10.93
2018-02-11T18:19:03.329Z,14.33
2018-02-11T18:21:30.937Z,11.97
2018-02-11T18:23:59.361Z,10.23
2018-02-11T18:26:27.385Z,13.93
2018-02-11T18:28:54.913Z,9.53
2018-02-11T18:31:22.713Z,10.80
2018-02-11T18:33:51.020Z,12.37
2018-02-11T18:36:18.568Z,10.23
2018-02-11T18:38:47.121Z,9.47
2018-02-11T18:41:15.336Z,10.13
2018-02-11T18:43:42.988Z,11.10
2018-02-11T18:46:10.540Z,11.33
2018-02-11T18:48:38.110Z,13.63
2018-02-11T18:51:05.622Z,20.53
2018-02-11T18:53:33.170Z,13.30
2018-02-11T18:56:00.693Z,11.33
2018-02-11T18:58:28.977Z,10.60
2018-02-11T19:00:57.248Z,13.57
2018-02-11T19:03:25.561Z,20.97
2018-02-11T19:05:53.116Z,13.17
2018-02-11T19:08:20.695Z,8.77
2018-02-11T19:10:48.247Z,14.83
2018-02-11T19:13:15.772Z,10.00
2018-02-11T19:15:43.301Z,15.87
2018-02-11T19:18:11.449Z,9.50
2018-02-11T19:20:38.948Z,12.40
2018-02-11T19:23:07.350Z,21.13
2018-02-11T19:25:34.929Z,16.80
2018-02-11T19:28:02.460Z,11.50
2018-02-11T19:30:30.060Z,11.00
2018-02-11T19:32:57.636Z,10.07
2018-02-11T19:35:25.183Z,10.60
2018-02-11T19:37:52.696Z,9.03
2018-02-11T19:40:20.244Z,11.43
2018-02-11T19:42:47.784Z,14.73
2018-02-11T19:45:15.828Z,12.10
2018-02-11T19:47:44.187Z,10.10
2018-02-11T19:50:11.690Z,28.77
2018-02-11T19:52:39.224Z,11.13
2018-02-11T19:55:06.780Z,9.80
2018-02-11T19:57:35.227Z,8.93
2018-02-11T20:00:02.781Z,10.43
2018-02-11T20:02:30.418Z,10.53
2018-02-11T20:04:58.033Z,14.20
2018-02-11T20:07:25.758Z,11.10
2018-02-11T20:09:53.352Z,9.10
2018-02-11T20:12:20.843Z,10.53
2018-02-11T20:14:48.977Z,8.53
2018-02-11T20:17:16.592Z,11.03
2018-02-11T20:19:44.971Z,16.87
2018-02-11T20:22:12.597Z,19.03
2018-02-11T20:24:41.071Z,17.30
2018-02-11T20:27:09.042Z,12.73
2018-02-11T20:29:36.832Z,19.27
2018-02-11T20:32:04.367Z,13.43
2018-02-11T20:34:31.897Z,26.53
2018-02-11T20:37:00.166Z,11.10
2018-02-11T20:39:27.714Z,8.87
2018-02-11T20:41:55.243Z,11.33
2018-02-11T20:44:22.889Z,22.67
2018-02-11T20:46:50.452Z,15.40
2018-02-11T20:49:18.090Z,10.80
2018-02-11T20:51:45.650Z,9.50
2018-02-11T20:54:13.433Z,9.13
2018-02-11T20:56:40.981Z,12.27
2018-02-11T20:59:08.658Z,11.53
2018-02-11T21:01:37.034Z,10.73
2018-02-11T21:04:05.083Z,9.87
2018-02-11T21:06:33.563Z,10.93
2018-02-11T21:09:01.150Z,10.23
2018-02-11T21:11:30.050Z,9.97
2018-02-11T21:13:57.645Z,10.80
2018-02-11T21:16:26.254Z,10.97
2018-02-11T21:18:53.755Z,11.20
2018-02-11T21:21:22.324Z,12.70
2018-02-11T21:23:50.686Z,15.30
2018-02-11T21:26:18.599Z,25.73
2018-02-11T21:28:46.322Z,20.40
2018-02-11T21:31:13.970Z,11.77
2018-02-11T21:33:43.078Z,12.33
2018-02-11T21:36:11.588Z,12.03
2018-02-11T21:38:40.427Z,11.43
2018-02-11T21:41:07.991Z,16.20
2018-02-11T21:43:36.607Z,10.70
2018-02-11T21:46:04.237Z,12.30
2018-02-11T21:48:32.503Z,11.93
2018-02-11T21:51:00.121Z,18.17
2018-02-11T21:53:27.661Z,12.63
2018-02-11T21:55:55.398Z,13.27
2018-02-11T21:58:22.991Z,11.23
2018-02-11T22:00:50.527Z,18.47
2018-02-11T22:03:18.774Z,13.40
2018-02-11T22:05:46.292Z,23.27
2018-02-11T22:08:14.050Z,11.20
2018-02-11T22:10:41.576Z,11.27
2018-02-11T22:13:09.854Z,11.70
2018-02-11T22:15:37.680Z,13.77
2018-02-11T22:18:05.241Z,13.43
2018-02-11T22:20:32.876Z,12.80
2018-02-11T22:23:00.402Z,14.13
2018-02-11T22:25:27.929Z,13.27
2018-02-11T22:27:55.717Z,12.67
2018-02-11T22:30:23.532Z,17.80
2018-02-11T22:32:51.071Z,19.47
2018-02-11T22:35:18.572Z,13.23
2018-02-11T22:37:46.075Z,11.60
2018-02-11T22:40:14.339Z,12.30
2018-02-11T22:42:41.839Z,12.20
2018-02-11T22:45:09.423Z,13.50
2018-02-11T22:47:37.131Z,11.60
2018-02-11T22:50:04.722Z,10.30
2018-02-11T22:52:32.280Z,11.87
2018-02-11T22:55:00.355Z,10.83
2018-02-11T22:57:27.885Z,12.50
2018-02-11T22:59:55.470Z,12.50
2018-02-11T23:04:57.002Z,18.70
2018-02-11T23:07:24.585Z,14.77
2018-02-11T23:09:52.100Z,13.17
2018-02-11T23:12:19.633Z,13.73
2018-02-11T23:14:47.787Z,13.90
2018-02-11T23:17:15.312Z,14.40
2018-02-11T23:19:50.544Z,14.03
2018-02-11T23:22:18.115Z,13.23
2018-02-11T23:24:45.632Z,15.37
2018-02-11T23:27:13.137Z,24.47
2018-02-11T23:29:40.713Z,18.00
2018-02-11T23:32:09.072Z,16.93
2018-02-11T23:34:37.644Z,15.40
2018-02-11T23:37:05.625Z,19.33
2018-02-11T23:39:33.911Z,15.70
2018-02-11T23:42:01.477Z,14.17
2018-02-11T23:44:29.110Z,14.40
2018-02-11T23:46:57.753Z,18.77
2018-02-11T23:49:25.260Z,16.97
2018-02-11T23:51:53.538Z,15.73
2018-02-11T23:54:21.559Z,18.20
2018-02-11T23:56:49.122Z,16.63
2018-02-11T23:59:16.686Z,25.70
